createdAt,value
2022-12-19T00:02:49.361Z,103510.69
2022-12-19T00:07:48.277Z,103478.03
2022-12-19T00:12:45.042Z,103549.69
2022-12-19T00:17:41.868Z,103546.09
2022-12-19T00:22:39.320Z,103508.94
2022-12-19T00:27:36.441Z,103515.00
2022-12-19T00:32:34.080Z,103499.19
2022-12-19T00:37:30.821Z,103571.69
2022-12-19T00:42:28.858Z,103555.66
2022-12-19T00:47:28.813Z,103530.03
2022-12-19T00:52:25.587Z,103530.84
2022-12-19T00:57:23.373Z,103534.28
2022-12-19T01:02:21.159Z,103484.81
2022-12-19T01:07:18.189Z,103544.44
2022-12-19T01:12:33.042Z,103528.72
2022-12-19T01:17:30.652Z,103545.38
2022-12-19T01:22:27.376Z,103493.09
2022-12-19T01:27:24.199Z,103536.88
2022-12-19T01:32:21.155Z,103563.91
2022-12-19T01:37:18.921Z,103549.81
2022-12-19T01:42:23.516Z,103576.78
2022-12-19T01:47:21.139Z,103550.94
2022-12-19T01:52:22.296Z,103573.22
2022-12-19T01:57:21.159Z,103525.19
2022-12-19T02:02:23.356Z,103592.84
2022-12-19T02:07:22.879Z,103539.78
2022-12-19T02:12:20.048Z,103589.75
2022-12-19T02:17:26.174Z,103605.53
2022-12-19T02:22:34.610Z,103583.81
2022-12-19T02:27:58.857Z,103598.16
2022-12-19T02:33:02.058Z,103619.63
2022-12-19T02:38:12.681Z,103617.72
2022-12-19T02:43:14.372Z,103631.44
2022-12-19T02:48:18.884Z,103601.34
2022-12-19T02:53:16.511Z,103606.59
2022-12-19T02:58:31.298Z,103522.16
2022-12-19T03:03:43.345Z,103593.41
2022-12-19T03:08:55.455Z,103629.94
2022-12-19T03:13:56.924Z,103626.50
2022-12-19T03:18:56.718Z,103613.41
2022-12-19T03:23:55.672Z,103637.25
2022-12-19T03:28:56.205Z,103623.13
2022-12-19T03:33:57.155Z,103562.59
2022-12-19T03:38:56.019Z,103649.34
2022-12-19T03:43:52.807Z,103565.94
2022-12-19T03:48:52.638Z,103627.78
2022-12-19T03:54:00.667Z,103646.50
2022-12-19T03:59:02.374Z,103655.75
2022-12-19T04:04:00.524Z,103605.19
2022-12-19T04:08:59.843Z,103615.63
2022-12-19T04:14:01.365Z,103674.84
2022-12-19T04:19:03.367Z,103635.31
2022-12-19T04:24:07.703Z,103690.03
2022-12-19T04:29:07.211Z,103700.31
2022-12-19T04:34:05.147Z,103618.34
2022-12-19T04:39:03.527Z,103693.47
2022-12-19T04:44:00.576Z,103667.84
2022-12-19T04:48:57.367Z,103710.09
2022-12-19T04:53:54.272Z,103717.91
2022-12-19T04:58:57.322Z,103720.69
2022-12-19T05:03:56.538Z,103740.78
2022-12-19T05:08:55.492Z,103690.09
2022-12-19T05:13:52.284Z,103684.38
2022-12-19T05:18:49.833Z,103750.19
2022-12-19T05:23:46.854Z,103755.25
2022-12-19T05:28:43.749Z,103708.22
2022-12-19T05:33:43.797Z,103748.97
2022-12-19T05:38:42.082Z,103728.75
2022-12-19T05:43:39.111Z,103732.34
2022-12-19T05:48:36.411Z,103796.94
2022-12-19T05:53:35.147Z,103727.16
2022-12-19T05:58:32.941Z,103782.34
2022-12-19T06:03:29.889Z,103788.06
2022-12-19T06:08:26.691Z,103804.84
2022-12-19T06:13:25.146Z,103806.38
2022-12-19T06:18:26.190Z,103827.31
2022-12-19T06:23:24.304Z,103776.91
2022-12-19T06:28:21.209Z,103834.75
2022-12-19T06:33:18.412Z,103780.09
2022-12-19T06:38:15.850Z,103786.16
2022-12-19T06:43:12.653Z,103753.84
2022-12-19T06:48:09.443Z,103854.78
2022-12-19T06:53:06.333Z,103799.38
2022-12-19T06:58:04.047Z,103833.25
2022-12-19T07:03:01.656Z,103790.34
2022-12-19T07:07:58.635Z,103828.41
2022-12-19T07:12:55.765Z,103823.28
2022-12-19T07:17:55.823Z,103806.13
2022-12-19T07:22:53.077Z,103898.91
2022-12-19T07:27:50.426Z,103824.09
2022-12-19T07:32:47.828Z,103857.03
2022-12-19T07:37:45.410Z,103906.41
2022-12-19T07:42:42.271Z,103899.97
2022-12-19T07:47:39.115Z,103905.91
2022-12-19T07:52:36.012Z,103864.25
2022-12-19T07:57:33.788Z,103942.78
2022-12-19T08:02:30.884Z,103827.31
2022-12-19T08:07:27.700Z,103930.16
2022-12-19T08:12:26.491Z,103917.84
2022-12-19T08:17:24.303Z,103942.03
2022-12-19T08:22:21.590Z,103813.94
2022-12-19T08:27:18.779Z,103870.88
2022-12-19T08:32:20.801Z,103910.13
2022-12-19T08:37:19.272Z,103901.13
2022-12-19T08:42:17.874Z,103930.88
2022-12-19T08:47:14.966Z,103894.94
2022-12-19T08:52:20.379Z,103924.88
2022-12-19T08:57:18.200Z,103940.53
2022-12-19T09:02:16.052Z,103866.34
2022-12-19T09:07:15.598Z,103856.22
2022-12-19T09:12:13.764Z,103789.63
2022-12-19T09:17:11.789Z,103825.63
2022-12-19T09:22:09.065Z,103784.19
2022-12-19T09:27:06.507Z,103779.50
2022-12-19T09:32:03.676Z,103797.66
2022-12-19T09:37:01.402Z,103863.69
2022-12-19T09:42:14.624Z,103858.88
2022-12-19T09:47:20.782Z,103839.03
2022-12-19T09:52:31.623Z,103762.81
2022-12-19T09:57:39.372Z,103866.41
2022-12-19T10:02:46.404Z,103837.41
2022-12-19T10:08:05.439Z,103849.94
2022-12-19T10:13:13.566Z,103826.56
2022-12-19T10:18:33.897Z,103831.25
2022-12-19T10:23:57.541Z,103803.06
2022-12-19T10:29:12.609Z,103813.94
2022-12-19T10:34:18.633Z,103734.03
2022-12-19T10:39:28.925Z,103780.50
2022-12-19T10:44:30.483Z,103786.06
2022-12-19T10:49:29.470Z,103791.16
2022-12-19T10:54:38.901Z,103818.28
2022-12-19T10:59:35.991Z,103785.06
2022-12-19T11:04:36.149Z,103798.47
2022-12-19T11:09:54.058Z,103704.78
2022-12-19T11:19:35.359Z,103781.59
2022-12-19T11:29:19.133Z,103734.75
2022-12-19T11:29:46.978Z,103766.28
2022-12-19T11:36:48.721Z,103765.09
2022-12-19T11:42:00.175Z,103767.06
2022-12-19T11:47:05.747Z,103746.63
2022-12-19T11:52:29.859Z,103816.59
2022-12-19T11:57:32.969Z,103826.56
2022-12-19T12:02:50.015Z,103769.22
2022-12-19T12:09:05.383Z,103767.59
2022-12-19T12:20:49.867Z,103817.88
2022-12-19T12:31:22.519Z,103784.91
2022-12-19T12:31:28.798Z,103814.25
2022-12-19T12:31:53.905Z,103813.84
2022-12-19T12:41:07.308Z,103828.75
2022-12-19T12:46:09.681Z,103763.19
2022-12-19T12:51:11.143Z,103830.16
2022-12-19T12:56:12.311Z,103828.53
2022-12-19T13:01:15.177Z,103818.75
2022-12-19T13:06:25.678Z,103822.78
2022-12-19T13:11:55.017Z,103760.50
2022-12-19T13:16:54.415Z,103833.78
2022-12-19T13:22:18.214Z,103773.69
2022-12-19T13:27:40.136Z,103840.56
2022-12-19T13:33:08.997Z,103704.84
2022-12-19T13:40:02.473Z,103835.34
2022-12-19T13:43:49.063Z,103809.41
2022-12-19T13:48:49.426Z,103827.00
2022-12-19T13:53:59.020Z,103832.94
2022-12-19T13:58:59.388Z,103822.38
2022-12-19T14:04:08.153Z,103778.78
2022-12-19T14:11:26.807Z,103833.63
2022-12-19T14:15:17.410Z,103818.19
2022-12-19T14:22:02.080Z,103765.63
2022-12-19T14:28:16.785Z,103849.06
2022-12-19T14:31:00.423Z,103725.16
2022-12-19T14:36:09.671Z,103782.91
2022-12-19T14:41:41.023Z,103850.59
2022-12-19T14:53:51.746Z,103774.13
2022-12-19T14:54:49.347Z,103833.75
2022-12-19T14:58:54.513Z,103722.19
2022-12-19T15:03:29.019Z,103744.81
2022-12-19T15:09:17.787Z,103854.38
2022-12-19T15:14:56.919Z,103862.84
2022-12-19T15:19:15.138Z,103825.63
2022-12-19T15:24:15.350Z,103787.75
2022-12-19T15:29:18.172Z,103856.41
2022-12-19T15:34:48.447Z,103825.06
2022-12-19T15:39:44.174Z,103789.19
2022-12-19T15:44:45.752Z,103860.81
2022-12-19T15:49:42.777Z,103827.84
2022-12-19T15:54:48.621Z,103816.16
2022-12-19T15:59:50.092Z,103845.78
2022-12-19T16:04:52.869Z,103832.53
2022-12-19T16:09:52.028Z,103800.47
2022-12-19T16:14:58.912Z,103891.78
2022-12-19T16:19:55.996Z,103845.28
2022-12-19T16:24:54.066Z,103853.03
2022-12-19T16:29:52.154Z,103865.38
2022-12-19T16:35:00.667Z,103862.53
2022-12-19T16:39:58.925Z,103853.91
2022-12-19T16:45:00.307Z,103865.19
2022-12-19T16:49:57.975Z,103811.41
2022-12-19T16:55:07.974Z,103798.09
2022-12-19T17:00:21.906Z,103899.66
2022-12-19T17:05:37.255Z,103875.53
2022-12-19T17:10:50.420Z,103885.66
2022-12-19T17:15:56.310Z,103786.41
2022-12-19T17:20:54.197Z,103797.09
2022-12-19T17:25:51.838Z,103810.34
2022-12-19T17:30:53.600Z,103824.97
2022-12-19T17:35:50.789Z,103888.53
2022-12-19T17:40:47.727Z,103876.28
2022-12-19T17:45:45.047Z,103918.41
2022-12-19T17:50:43.062Z,103916.16
2022-12-19T17:55:40.110Z,103879.19
2022-12-19T18:00:38.380Z,103851.69
2022-12-19T18:05:36.791Z,103884.94
2022-12-19T18:10:34.648Z,103865.19
2022-12-19T18:15:31.498Z,103915.34
2022-12-19T18:20:32.700Z,103882.97
2022-12-19T18:25:35.276Z,103896.03
2022-12-19T18:30:34.265Z,103826.22
2022-12-19T18:35:34.175Z,103924.81
2022-12-19T18:40:32.060Z,103894.34
2022-12-19T18:45:42.160Z,103856.41
2022-12-19T18:50:49.247Z,103923.28
2022-12-19T18:55:46.213Z,103865.81
2022-12-19T19:00:44.632Z,103911.84
2022-12-19T19:05:42.297Z,103903.63
2022-12-19T19:10:39.264Z,103929.91
2022-12-19T19:15:48.315Z,103904.44
2022-12-19T19:20:47.835Z,103875.53
2022-12-19T19:25:44.718Z,103909.66
2022-12-19T19:30:42.324Z,103893.72
2022-12-19T19:35:43.832Z,103883.41
2022-12-19T19:40:41.197Z,103916.41
2022-12-19T19:45:43.241Z,103860.78
2022-12-19T19:50:41.392Z,103883.75
2022-12-19T19:55:38.476Z,103927.91
2022-12-19T20:00:35.316Z,103902.41
2022-12-19T20:05:32.390Z,103894.97
2022-12-19T20:10:30.117Z,103917.31
2022-12-19T20:15:27.095Z,103831.25
2022-12-19T20:20:24.324Z,103864.59
2022-12-19T20:25:21.228Z,103875.38
2022-12-19T20:30:19.120Z,103901.91
2022-12-19T20:35:16.308Z,103905.59
2022-12-19T20:40:13.507Z,103862.81
2022-12-19T20:45:10.712Z,103911.47
2022-12-19T20:50:09.138Z,103919.06
2022-12-19T20:55:07.335Z,103829.25
2022-12-19T21:00:05.082Z,103852.75
2022-12-19T21:05:01.985Z,103897.91
2022-12-19T21:09:59.538Z,103886.28
2022-12-19T21:14:56.445Z,103875.66
2022-12-19T21:19:53.347Z,103838.47
2022-12-19T21:24:50.249Z,103828.06
2022-12-19T21:29:47.808Z,103881.84
2022-12-19T21:34:44.728Z,103896.00
2022-12-19T21:39:41.919Z,103807.44
2022-12-19T21:44:39.085Z,103848.81
2022-12-19T21:49:36.733Z,103884.28
2022-12-19T21:54:33.659Z,103823.59
2022-12-19T21:59:30.673Z,103823.41
2022-12-19T22:04:27.632Z,103867.72
2022-12-19T22:09:25.519Z,103830.53
2022-12-19T22:14:25.499Z,103812.72
2022-12-19T22:19:22.421Z,103785.69
2022-12-19T22:24:19.637Z,103848.38
2022-12-19T22:29:17.579Z,103815.41
2022-12-19T22:34:15.970Z,103830.84
2022-12-19T22:39:14.395Z,103837.75
2022-12-19T22:44:17.087Z,103824.34
2022-12-19T22:49:15.374Z,103790.50
2022-12-19T22:54:13.599Z,103847.38
2022-12-19T22:59:12.920Z,103841.69
2022-12-19T23:04:12.960Z,103785.44
2022-12-19T23:09:14.366Z,103808.31
2022-12-19T23:14:14.637Z,103843.94
2022-12-19T23:19:11.810Z,103836.31
2022-12-19T23:24:08.764Z,103835.31
2022-12-19T23:29:08.046Z,103756.72
2022-12-19T23:34:04.847Z,103819.84
2022-12-19T23:39:01.755Z,103794.63
2022-12-19T23:43:58.813Z,103804.00
2022-12-19T23:48:57.848Z,103793.41
2022-12-19T23:53:55.745Z,103802.69
2022-12-19T23:58:52.774Z,103752.75
